| Date | Time | Temp. (oF) | Dew Point (oF) | Rel. Hum. (%) | Press. (in.) | Wind Dir. | Wind Speed (mph) | Hourly Rainfall (in.) |
|
|---|---|---|---|---|---|---|---|---|---|
| 1 | 09/15 | 00:00 | 82 | 71 | 71 | 29.59 | SSW | 12 | 0.00 |
| 2 | 09/14 | 23:00 | 82 | 72 | 72 | 29.59 | SSW | 9 | 0.00 |
| 3 | 09/14 | 22:00 | 81 | 72 | 75 | 29.60 | SW | 12 | 0.00 |
| 4 | 09/14 | 21:00 | 82 | 73 | 75 | 29.61 | SSW | 4 | 0.00 |
| 5 | 09/14 | 20:00 | 82 | 73 | 75 | 29.59 | S | 8 | 0.00 |
| 6 | 09/14 | 19:00 | 84 | 75 | 76 | 29.60 | SSW | 6 | 0.00 |
| 7 | 09/14 | 18:00 | 85 | 75 | 73 | 29.61 | S | 4 | 0.00 |
| 8 | 09/14 | 17:00 | 87 | 74 | 66 | 29.63 | S | 7 | 0.00 |
| 9 | 09/14 | 16:00 | 90 | 73 | 59 | 29.65 | SSW | 5 | 0.00 |
| 10 | 09/14 | 15:00 | 91 | 73 | 57 | 29.68 | SSW | 6 | 0.00 |
| 11 | 09/14 | 14:00 | 90 | 70 | 54 | 29.71 | S | 7 | 0.00 |
| 12 | 09/14 | 13:00 | 90 | 73 | 58 | 29.75 | SW | 9 | 0.00 |
| 13 | 09/14 | 12:00 | 88 | 73 | 63 | 29.77 | SSW | 6 | 0.00 |
| 14 | 09/14 | 11:00 | 84 | 76 | 79 | 29.79 | S | 3 | 0.00 |
| 15 | 09/14 | 10:00 | 81 | 76 | 86 | 29.81 | S | 4 | 0.00 |
| 16 | 09/14 | 09:00 | 76 | 74 | 94 | 29.82 | S | 5 | 0.00 |
| 17 | 09/14 | 08:00 | 71 | 71 | 100 | 29.82 | SSE | 0 | 0.00 |
| 18 | 09/14 | 07:00 | 69 | 68 | 100 | 29.82 | SSE | 0 | 0.00 |
| 19 | 09/14 | 06:00 | 70 | 69 | 100 | 29.81 | SSE | 0 | 0.00 |
| 20 | 09/14 | 05:00 | 71 | 71 | 100 | 29.80 | SSE | 0 | 0.00 |
| 21 | 09/14 | 04:00 | 72 | 72 | 100 | 29.82 | SSE | 0 | 0.00 |
| 22 | 09/14 | 03:00 | 71 | 71 | 100 | 29.83 | S | 0 | 0.00 |
| 23 | 09/14 | 02:00 | 72 | 71 | 98 | 29.85 | S | 0 | 0.00 |
| 24 | 09/14 | 01:00 | 73 | 72 | 97 | 29.87 | S | 0 | 0.00 |